SAWU/RZA METAR and TAF weather

Enter ICAO airport designator
Station Type Date Time Source
SAWU METAR 2022/05/19 17:35 UTC NOAA

SAWU 191735Z 34005KT 5000 BCFG BKN003 SCT100 01/01 Q1010


Station Type Date Time Source
SAWU Decoded METAR 2022/05/19 17:35 UTC NOAA

Santa Cruz Aerodrome, Argentina (SAWU) 50-01S 068-34W 111M
May 19, 2022 - 01:35 PM EDT / 2022.05.19 1735 UTC
Wind: from the NNW (340 degrees) at 6 MPH (5 KT):0
Visibility: 3 mile(s):0
Sky conditions: mostly cloudy
Weather: patches of fog
Temperature: 33 F (1 C)
Windchill: 26 F (-3 C):1
Dew Point: 33 F (1 C)
Relative Humidity: 100%
Pressure (altimeter): 29.83 in. Hg (1010 hPa)
ob: SAWU 191735Z 34005KT 5000 BCFG BKN003 SCT100 01/01 Q1010
cycle: 17

Station Type Date Time Source
SAWU TAF UTC NOAA

Error!

Example: see airport list